Flugplatz Hahnweide

EDST · 巴登-符腾堡, 德国

METAR的历史 EDST · Flugplatz Hahnweide

下面你可以看到过去几天的METARs。 选择年份以浏览从2007年开始的旧METAR。

2022年11月29日

时间 代码 天气 温度 能见度 天花板 METAR/SPECI
08:50
I
6 °C 10 km+ 700 ft 250° 250° 3 kt METAR EDDS 290750Z AUTO 25003KT 9999 BKN007 06/06 Q1015 NOSIG
08:20
I
6 °C 10 km+ 700 ft 240° 240° 3 kt METAR EDDS 290720Z AUTO 24003KT 9999 OVC007 06/06 Q1015 NOSIG
07:50
I
6 °C 8 km 800 ft 250° 250° 4 kt METAR EDDS 290650Z AUTO 25004KT 8000 OVC008 06/06 Q1014 NOSIG
07:20
I
6 °C 4,5 km 900 ft 250° 250° 5 kt METAR EDDS 290620Z AUTO 25005KT 4500 -DZ BR BKN009 OVC014 06/06 Q1014 REDZ NOSIG
06:50
I
6 °C 10 km+ 900 ft 250° 250° 4 kt METAR EDDS 290550Z AUTO 25004KT 220V280 9999 OVC009 06/05 Q1014 NOSIG
06:20
M
6 °C 10 km+ 1.000 ft 260° 260° 5 kt METAR EDDS 290520Z AUTO 26005KT 9999 OVC010 06/05 Q1014 NOSIG
05:50
M
6 °C 10 km+ 1.100 ft 240° 240° 3 kt METAR EDDS 290450Z AUTO 24003KT 9999 OVC011 06/05 Q1014
05:20
M
6 °C 10 km+ 1.300 ft 270° 270° 2 kt METAR EDDS 290420Z AUTO 27002KT 9999 OVC013 06/05 Q1013
04:50
M
6 °C 10 km+ 2.200 ft Var 000° 0 kt METAR EDDS 290350Z AUTO 00000KT 9999 SCT016 BKN022 OVC030 06/05 Q1013
04:20
I
6 °C 2,9 km 2.200 ft Var Var 1 kt METAR EDDS 290320Z AUTO VRB01KT 9999 2900 BR FEW017 BKN022 OVC034 06/05 Q1013
03:50
M
6 °C 9 km 1.900 ft Var 000° 0 kt METAR EDDS 290250Z AUTO 00000KT 9000 -DZ BKN019 06/05 Q1013
03:20
M
6 °C 8 km 1.900 ft 270° 270° 2 kt METAR EDDS 290220Z AUTO 27002KT 8000 -RADZ BKN019 BKN025 OVC031 06/05 Q1013
02:50
M
6 °C 8 km 2.800 ft Var Var 1 kt METAR EDDS 290150Z AUTO VRB01KT 8000 -RA SCT019 OVC028 OVC042 06/05 Q1013
02:20
V
6 °C 9 km 3.600 ft 280° 280° 1 kt METAR EDDS 290120Z AUTO 28001KT 9000 -RA SCT029 BKN036 06/05 Q1013
01:50
V
6 °C 8 km 3.000 ft 260° 260° 2 kt METAR EDDS 290050Z AUTO 26002KT 8000 -RA SCT018 BKN030 OVC039 06/05 Q1013
01:20
M
6 °C 9 km 2.100 ft Var Var 1 kt METAR EDDS 290020Z AUTO VRB01KT 9000 -RADZ SCT017 BKN021 BKN033 06/05 Q1013
00:50
I
6 °C 4,3 km 2.400 ft Var Var 1 kt METAR EDDS 282350Z AUTO VRB01KT 9000 4300 -RADZ BR SCT018 BKN024 OVC033 06/05 Q1013
00:20
M
6 °C 9 km 1.700 ft Var Var 1 kt METAR EDDS 282320Z AUTO VRB01KT 9000 -RADZ BKN017 BKN032 06/05 Q1013

2022年11月28日

时间 代码 天气 温度 能见度 天花板 METAR/SPECI
23:50
M
6 °C 9 km 1.700 ft 320° 320° 1 kt METAR EDDS 282250Z AUTO 32001KT 9000 -RA OVC017 06/05 Q1013
23:20
M
6 °C 10 km+ 1.900 ft 060° 060° 2 kt METAR EDDS 282220Z AUTO 06002KT 9999 -RA BKN019 OVC023 06/05 Q1013
22:50
M
6 °C 10 km+ 2.500 ft Var Var 1 kt METAR EDDS 282150Z AUTO VRB01KT 9999 -RADZ BKN025 OVC033 06/05 Q1013
22:20
I
6 °C 4,6 km 2.600 ft Var Var 1 kt METAR EDDS 282120Z AUTO VRB01KT 9999 4600 -DZ BR BKN026 OVC034 06/05 Q1013
21:50
M
6 °C 7 km 3.300 ft Var Var 1 kt METAR EDDS 282050Z AUTO VRB01KT 7000 -DZ FEW020 SCT027 BKN033 06/05 Q1013
21:20
M
6 °C 7 km 2.200 ft 210° 210° 1 kt METAR EDDS 282020Z AUTO 21001KT 7000 -RA BKN022 BKN027 BKN033 06/05 Q1013 NOSIG
20:50
M
6 °C 10 km+ 2.900 ft 290° 290° 1 kt METAR EDDS 281950Z AUTO 29001KT 9999 -RADZ BKN029 BKN035 06/05 Q1013 NOSIG
20:20
M
6 °C 10 km+ 2.900 ft Var Var 2 kt METAR EDDS 281920Z AUTO VRB02KT 9999 -RADZ BKN029 BKN034 06/05 Q1013 NOSIG
19:50
V
6 °C 10 km+ 3.600 ft 270° 270° 4 kt METAR EDDS 281850Z AUTO 27004KT 9999 -RADZ BKN036 OVC044 06/05 Q1012 NOSIG
19:20
V
6 °C 10 km+ 4.200 ft Var Var 1 kt METAR EDDS 281820Z AUTO VRB01KT 9999 -RA OVC042 06/05 Q1012 NOSIG
18:50
V
6 °C 10 km+ 4.300 ft 300° 300° 2 kt METAR EDDS 281750Z AUTO 30002KT 9999 OVC043 06/05 Q1012 NOSIG
18:20
V
6 °C 10 km+ - 310° 310° 3 kt METAR EDDS 281720Z AUTO 31003KT 250V330 9999 SCT040 06/05 Q1012 NOSIG
17:50
V
6 °C 10 km+ 3.800 ft 300° 300° 2 kt METAR EDDS 281650Z AUTO 30002KT 9999 -RADZ BKN038 BKN046 06/04 Q1012 NOSIG
17:20
V
6 °C 10 km+ - Var Var 2 kt METAR EDDS 281620Z AUTO VRB02KT 9999 -RADZ FEW034 06/04 Q1012 NOSIG
16:50
V
6 °C 10 km+ - 290° 290° 1 kt METAR EDDS 281550Z AUTO 29001KT 9999 -RADZ FEW033 06/04 Q1012 NOSIG
16:20
V
6 °C 10 km+ - 090° 090° 3 kt METAR EDDS 281520Z AUTO 09003KT 060V120 9999 FEW031 06/04 Q1012 NOSIG
15:50
V
6 °C 10 km+ - 080° 080° 3 kt METAR EDDS 281450Z AUTO 08003KT 9999 -RA SCT035 06/04 Q1012 NOSIG
15:20
V
6 °C 10 km+ 3.400 ft 080° 080° 5 kt METAR EDDS 281420Z AUTO 08005KT 9999 BKN034 06/04 Q1012 NOSIG
14:50
V
7 °C 10 km+ - 080° 080° 3 kt METAR EDDS 281350Z AUTO 08003KT 9999 FEW036 07/05 Q1012 NOSIG
14:20
V
7 °C 10 km+ - 070° 070° 3 kt METAR EDDS 281320Z AUTO 07003KT 9999 -RADZ FEW039 07/05 Q1012 NOSIG
13:50
V
7 °C 10 km+ - Var Var 2 kt METAR EDDS 281250Z AUTO VRB02KT 9999 -RA NSC 07/04 Q1013 NOSIG
13:20
V
7 °C 10 km+ - Var Var 1 kt METAR EDDS 281220Z AUTO VRB01KT 9999 -RA FEW044 07/04 Q1013 NOSIG
12:50
V
6 °C 10 km+ - 070° 070° 2 kt METAR EDDS 281150Z AUTO 07002KT 9999 -RA FEW024 06/04 Q1013 NOSIG
12:20
V
6 °C 10 km+ - 060° 060° 3 kt METAR EDDS 281120Z AUTO 06003KT 9999 FEW043 06/03 Q1013 NOSIG
11:50
V
6 °C 10 km+ - 070° 070° 3 kt METAR EDDS 281050Z AUTO 07003KT 020V140 CAVOK 06/03 Q1013 NOSIG
11:20
V
5 °C 10 km+ - Var Var 2 kt METAR EDDS 281020Z AUTO VRB02KT CAVOK 05/03 Q1013 NOSIG
10:50
V
4 °C 10 km+ - 070° 070° 3 kt METAR EDDS 280950Z AUTO 07003KT 050V110 CAVOK 04/03 Q1013 NOSIG
10:20
V
4 °C 10 km+ - Var Var 2 kt METAR EDDS 280920Z AUTO VRB02KT CAVOK 04/03 Q1013 NOSIG
09:50
V
4 °C 10 km+ - Var Var 2 kt METAR EDDS 280850Z AUTO VRB02KT CAVOK 04/02 Q1013 NOSIG
09:20
V
3 °C 10 km+ - Var Var 1 kt METAR EDDS 280820Z AUTO VRB01KT CAVOK 03/02 Q1013 NOSIG
08:50
V
2 °C 10 km+ - Var Var 2 kt METAR EDDS 280750Z AUTO VRB02KT CAVOK 02/01 Q1013 NOSIG
08:20
V
3 °C 10 km+ - Var Var 2 kt METAR EDDS 280720Z AUTO VRB02KT CAVOK 03/01 Q1013 NOSIG
07:50
V
4 °C 10 km+ - Var Var 1 kt METAR EDDS 280650Z AUTO VRB01KT CAVOK 04/01 Q1013 NOSIG
07:20
V
4 °C 10 km+ - Var Var 2 kt METAR EDDS 280620Z AUTO VRB02KT CAVOK 04/01 Q1013 NOSIG
06:50
V
4 °C 10 km+ - 180° 180° 4 kt METAR EDDS 280550Z AUTO 18004KT CAVOK 04/01 Q1013 NOSIG
06:20
V
2 °C 10 km+ - 110° 110° 3 kt METAR EDDS 280520Z AUTO 11003KT CAVOK 02/01 Q1013 NOSIG
05:50
V
2 °C 10 km+ - Var Var 2 kt METAR EDDS 280450Z AUTO VRB02KT CAVOK 02/01 Q1013
05:20
V
3 °C 10 km+ - Var Var 1 kt METAR EDDS 280420Z AUTO VRB01KT CAVOK 03/01 Q1013
04:50
V
3 °C 10 km+ - Var Var 1 kt METAR EDDS 280350Z AUTO VRB01KT CAVOK 03/01 Q1013
04:20
V
2 °C 10 km+ - Var Var 1 kt METAR EDDS 280320Z AUTO VRB01KT CAVOK 02/01 Q1013
03:50
V
2 °C 10 km+ - Var Var 2 kt METAR EDDS 280250Z AUTO VRB02KT CAVOK 02/01 Q1013
03:20
V
2 °C 10 km+ - Var Var 2 kt METAR EDDS 280220Z AUTO VRB02KT CAVOK 02/01 Q1014
02:50
V
3 °C 10 km+ - Var Var 2 kt METAR EDDS 280150Z AUTO VRB02KT CAVOK 03/01 Q1014
02:20
V
3 °C 10 km+ - Var Var 2 kt METAR EDDS 280120Z AUTO VRB02KT CAVOK 03/01 Q1014
01:50
V
3 °C 10 km+ - 290° 290° 4 kt METAR EDDS 280050Z AUTO 29004KT CAVOK 03/01 Q1014
01:20
V
3 °C 10 km+ - Var Var 1 kt METAR EDDS 280020Z AUTO VRB01KT CAVOK 03/01 Q1014
00:50
V
3 °C 10 km+ - 050° 050° 3 kt METAR EDDS 272350Z AUTO 05003KT 350V100 CAVOK 03/01 Q1015
00:20
V
3 °C 10 km+ - Var Var 1 kt METAR EDDS 272320Z AUTO VRB01KT CAVOK 03/01 Q1015

2022年11月27日

时间 代码 天气 温度 能见度 天花板 METAR/SPECI
23:50
V
3 °C 10 km+ - Var Var 1 kt METAR EDDS 272250Z AUTO VRB01KT CAVOK 03/01 Q1016
23:20
V
3 °C 10 km+ - Var Var 1 kt METAR EDDS 272220Z AUTO VRB01KT CAVOK 03/01 Q1016
22:50
V
3 °C 10 km+ - Var Var 1 kt METAR EDDS 272150Z AUTO VRB01KT CAVOK 03/01 Q1016
22:20
V
3 °C 10 km+ - 090° 090° 3 kt METAR EDDS 272120Z AUTO 09003KT 040V110 CAVOK 03/01 Q1016
21:50
V
3 °C 10 km+ - 080° 080° 3 kt METAR EDDS 272050Z AUTO 08003KT CAVOK 03/01 Q1017 NOSIG
21:20
V
3 °C 10 km+ - Var Var 1 kt METAR EDDS 272020Z AUTO VRB01KT CAVOK 03/01 Q1017 NOSIG
20:50
V
3 °C 10 km+ - 100° 100° 4 kt METAR EDDS 271950Z AUTO 10004KT 070V140 CAVOK 03/02 Q1017 NOSIG
20:20
V
4 °C 10 km+ - 060° 060° 2 kt METAR EDDS 271920Z AUTO 06002KT CAVOK 04/01 Q1018 NOSIG
19:50
V
4 °C 10 km+ - Var Var 1 kt METAR EDDS 271850Z AUTO VRB01KT CAVOK 04/01 Q1018 NOSIG
19:20
V
4 °C 10 km+ - 120° 120° 3 kt METAR EDDS 271820Z AUTO 12003KT 080V160 CAVOK 04/01 Q1018 NOSIG
18:50
V
5 °C 10 km+ - 180° 180° 3 kt METAR EDDS 271750Z AUTO 18003KT 140V210 CAVOK 05/00 Q1019 NOSIG
18:20
V
5 °C 10 km+ - 140° 140° 6 kt METAR EDDS 271720Z AUTO 14006KT CAVOK 05/00 Q1019 NOSIG
17:50
V
5 °C 10 km+ - 160° 160° 5 kt METAR EDDS 271650Z AUTO 16005KT CAVOK 05/02 Q1020 NOSIG
17:20
V
6 °C 10 km+ - 190° 190° 3 kt METAR EDDS 271620Z AUTO 19003KT CAVOK 06/02 Q1020 NOSIG
16:50
V
6 °C 10 km+ - 190° 190° 4 kt METAR EDDS 271550Z AUTO 19004KT CAVOK 06/03 Q1020 NOSIG
16:20
V
6 °C 10 km+ - 140° 140° 4 kt METAR EDDS 271520Z AUTO 14004KT 100V170 CAVOK 06/03 Q1020 NOSIG
15:50
V
6 °C 10 km+ - Var Var 1 kt METAR EDDS 271450Z AUTO VRB01KT CAVOK 06/03 Q1021 NOSIG
15:20
V
7 °C 10 km+ - 270° 270° 1 kt METAR EDDS 271420Z AUTO 27001KT CAVOK 07/02 Q1021 NOSIG
14:50
V
7 °C 10 km+ - Var Var 1 kt METAR EDDS 271350Z AUTO VRB01KT CAVOK 07/02 Q1021 NOSIG
14:20
V
7 °C 10 km+ - Var Var 1 kt METAR EDDS 271320Z AUTO VRB01KT CAVOK 07/02 Q1022 NOSIG
13:50
V
7 °C 10 km+ - Var Var 1 kt METAR EDDS 271250Z AUTO VRB01KT CAVOK 07/02 Q1022 NOSIG
13:20
V
5 °C 10 km+ - 090° 090° 3 kt METAR EDDS 271220Z AUTO 09003KT 050V110 CAVOK 05/01 Q1022 NOSIG
12:50
V
5 °C 10 km+ - 100° 100° 3 kt METAR EDDS 271150Z AUTO 10003KT 030V150 CAVOK 05/02 Q1023 NOSIG
12:20
V
4 °C 10 km+ - Var Var 2 kt METAR EDDS 271120Z AUTO VRB02KT CAVOK 04/02 Q1023 NOSIG
11:50
V
2 °C 10 km+ - Var Var 2 kt METAR EDDS 271050Z AUTO VRB02KT 9999 FEW002 02/01 Q1024
11:20
V
1 °C 10 km+ - 090° 090° 3 kt METAR EDDS 271020Z AUTO 09003KT 050V120 9999 FEW001 01/01 Q1024 NOSIG
10:50
V
0 °C 8 km - Var Var 2 kt METAR EDDS 270950Z AUTO VRB02KT 8000 FEW001 00/M00 Q1025 NOSIG
10:20
L
-1 °C 300 m - Var Var 1 kt METAR EDDS 270920Z AUTO VRB01KT 0350 0300 R07/1800U FZFG FEW002 M01/M01 Q1025 BECMG 2000 BCFG
09:50
L
-1 °C 400 m - Var Var 1 kt METAR EDDS 270850Z AUTO VRB01KT 0900 0400 R07/P2000N FZFG SCT001 M01/M02 Q1025 TEMPO 0400 FZFG BKN001
09:20
V
-2 °C 8 km - Var Var 2 kt METAR EDDS 270820Z AUTO VRB02KT 8000 SCT001 M02/M02 Q1026 NOSIG
08:50
V
-2 °C 10 km+ - Var Var 2 kt METAR EDDS 270750Z AUTO VRB02KT 9999 FEW001 M02/M03 Q1026 NOSIG
08:20
V
-3 °C 8 km - Var Var 1 kt METAR EDDS 270720Z AUTO VRB01KT 8000 NSC M03/M04 Q1026 NOSIG
07:50
L
-3 °C 1,4 km - 270° 270° 1 kt METAR EDDS 270650Z AUTO 27001KT 1700 1400 R07/P2000N BR NCD M03/M03 Q1026 TEMPO 6000
07:20
L
-4 °C 1 km - Var Var 1 kt METAR EDDS 270620Z AUTO VRB01KT 1000 R07/1300D BR NCD M04/M04 Q1026 NOSIG
06:50
L
-4 °C 400 m - Var 000° 0 kt METAR EDDS 270550Z AUTO 00000KT 0400 R07/0550U FZFG NCD M04/M04 Q1026 NOSIG
06:20
L
-4 °C 100 m - 060° 060° 3 kt METAR EDDS 270520Z AUTO 06003KT 0400 0100 R07/0375N FZFG FEW002 M04/M04 Q1026 NOSIG
05:50
L
-3 °C 250 m - 070° 070° 2 kt METAR EDDS 270450Z AUTO 07002KT 0500 0250 R07/0900N FZFG NCD M03/M03 Q1026
05:20
L
-3 °C 300 m - 050° 050° 1 kt METAR EDDS 270420Z AUTO 05001KT 0400 0300 R25/0700U FZFG NSC M03/M03 Q1027
04:50
L
-2 °C 600 m - 110° 110° 1 kt METAR EDDS 270350Z AUTO 11001KT 0900 0600 R25/0800N FZFG NSC M02/M02 Q1027
04:20
L
-2 °C 700 m - Var 000° 0 kt METAR EDDS 270320Z AUTO 00000KT 1100 0700 R25/1400N BCFG NCD M02/M03 Q1027
03:50
L
-2 °C 500 m - Var Var 1 kt METAR EDDS 270250Z AUTO VRB01KT 1000 0500 R25/0650N BCFG NCD M02/M02 Q1027
03:20
L
-2 °C 300 m - Var Var 1 kt METAR EDDS 270220Z AUTO VRB01KT 0400 0300 R25/0375N FZFG FEW002 M02/M02 Q1027
02:50
L
-2 °C 250 m - Var Var 1 kt METAR EDDS 270150Z AUTO VRB01KT 0250 R25/0400N FZFG FEW002 M02/M02 Q1028
02:20
L
-1 °C 200 m 200 ft Var Var 2 kt METAR EDDS 270120Z AUTO VRB02KT 0300 0200 R25/0375N FZFG VV002 M01/M01 Q1028
01:50
L
-1 °C 150 m - Var Var 1 kt METAR EDDS 270050Z AUTO VRB01KT 0350 0150 R25/0400N FZFG FEW002 M01/M01 Q1028
01:20
L
0 °C 250 m - Var Var 1 kt METAR EDDS 270020Z AUTO VRB01KT 0350 0250 R25/0400N FZFG FEW002 M00/M00 Q1029
00:50
L
0 °C 350 m - 310° 310° 1 kt METAR EDDS 262350Z AUTO 31001KT 0450 0350 R25/0450N FG FEW001 00/00 Q1029
00:20
L
0 °C 250 m 200 ft Var Var 1 kt METAR EDDS 262320Z AUTO VRB01KT 0350 0250 R25/0275N FG VV002 00/00 Q1030

2022年11月26日

时间 代码 天气 温度 能见度 天花板 METAR/SPECI
23:50
L
1 °C 200 m 200 ft Var Var 1 kt METAR EDDS 262250Z AUTO VRB01KT 0250 0200 R25/0450U FG VV002 01/01 Q1030
23:20
L
1 °C 150 m 200 ft Var Var 1 kt METAR EDDS 262220Z AUTO VRB01KT 0200 0150 R25/0250N FG VV002 01/01 Q1030
22:50
L
1 °C 400 m - Var Var 1 kt METAR EDDS 262150Z AUTO VRB01KT 0500 0400 R25/0500U FG FEW001 01/01 Q1029
22:20
V
1 °C 8 km - Var Var 2 kt METAR EDDS 262120Z AUTO VRB02KT 8000 FEW001 01/00 Q1029
21:50
V
0 °C 8 km - Var Var 1 kt METAR EDDS 262050Z AUTO VRB01KT 8000 NSC M00/M01 Q1029 TEMPO 2000 BR
21:20
M
1 °C 7 km - Var Var 1 kt METAR EDDS 262020Z AUTO VRB01KT 7000 NSC 01/00 Q1029 NOSIG
20:50
M
1 °C 7 km - 290° 290° 1 kt METAR EDDS 261950Z AUTO 29001KT 7000 NSC 01/01 Q1030 NOSIG
20:20
V
2 °C 8 km - 290° 290° 2 kt METAR EDDS 261920Z AUTO 29002KT 8000 NSC 02/02 Q1030 NOSIG
19:50
V
3 °C 10 km+ - 310° 310° 2 kt METAR EDDS 261850Z AUTO 31002KT CAVOK 03/03 Q1030 NOSIG
19:20
V
3 °C 10 km+ - 320° 320° 3 kt METAR EDDS 261820Z AUTO 32003KT CAVOK 03/02 Q1030 NOSIG
18:50
V
2 °C 10 km+ - 300° 300° 3 kt METAR EDDS 261750Z AUTO 30003KT CAVOK 02/01 Q1030 NOSIG
18:20
V
4 °C 10 km+ - 290° 290° 1 kt METAR EDDS 261720Z AUTO 29001KT CAVOK 04/03 Q1030 NOSIG
17:50
V
4 °C 10 km+ - 130° 130° 1 kt METAR EDDS 261650Z AUTO 13001KT CAVOK 04/03 Q1030 NOSIG
17:20
V
6 °C 10 km+ - 360° 360° 4 kt METAR EDDS 261620Z AUTO 36004KT 9999 FEW031 06/04 Q1030 NOSIG
16:50
V
6 °C 10 km+ - 350° 350° 5 kt METAR EDDS 261550Z AUTO 35005KT 9999 SCT032 06/04 Q1030 NOSIG
16:20
V
7 °C 10 km+ - 030° 030° 3 kt METAR EDDS 261520Z AUTO 03003KT 340V050 CAVOK 07/04 Q1030 NOSIG
15:50
V
8 °C 10 km+ - Var Var 2 kt METAR EDDS 261450Z AUTO VRB02KT CAVOK 08/04 Q1030 NOSIG
15:20
V
9 °C 10 km+ - Var Var 2 kt METAR EDDS 261420Z AUTO VRB02KT CAVOK 09/05 Q1030 NOSIG
14:50
V
9 °C 10 km+ - Var Var 2 kt METAR EDDS 261350Z AUTO VRB02KT 9999 FEW030 09/04 Q1030 NOSIG
14:20
V
10 °C 10 km+ - Var Var 2 kt METAR EDDS 261320Z AUTO VRB02KT 9999 FEW019 10/05 Q1030 NOSIG
13:50
V
9 °C 10 km+ - Var Var 2 kt METAR EDDS 261250Z AUTO VRB02KT 9999 FEW021 09/05 Q1030 NOSIG
13:20
V
9 °C 10 km+ - Var Var 2 kt METAR EDDS 261220Z AUTO VRB02KT 9999 FEW019 09/05 Q1030 NOSIG
12:50
V
9 °C 10 km+ - Var Var 2 kt METAR EDDS 261150Z AUTO VRB02KT 9999 FEW015 09/04 Q1030 NOSIG
12:20
V
10 °C 10 km+ - Var Var 2 kt METAR EDDS 261120Z AUTO VRB02KT 9999 FEW011 10/05 Q1030 NOSIG
11:50
V
9 °C 10 km+ - Var Var 1 kt METAR EDDS 261050Z AUTO VRB01KT CAVOK 09/05 Q1031 NOSIG
11:20
V
8 °C 10 km+ - Var Var 2 kt METAR EDDS 261020Z AUTO VRB02KT 9999 FEW019 08/05 Q1031 NOSIG
10:50
M
7 °C 10 km+ 1.700 ft Var Var 2 kt METAR EDDS 260950Z AUTO VRB02KT 9999 BKN017 07/04 Q1031 NOSIG

我们和第三方通过cookies跟踪您在我们网站上的互联网行为。如果你继续,我们认为你同意我们的饼干政策